Hauptseite
METAR-TAF:

METAR-TAF

Flughäfen :

Flughafen Gran Canaria

Gran Canaria, Spanien

Breite: 27-56N, Länge: 015-23W, Höhe: 23 m

Beobachtung

Neuester Wetterbericht von vor 46 Minuten, um 10:30 UTC
Wind 21 kt aus Nord/Nordost
Temperatur 19°C
Luftfeuchtigkeit 52%
Luftdruck 1026 hPa
Sichtweite 10 km oder mehr
Aufgelockert bewölkt in der Höhe von 4500 ft

METAR: GCLP 221030Z 03021KT 9999 SCT045 19/09 Q1026 NOSIG

Zeit: 11:16 (11:16 UTC)

Prognose

Neuester Wetterbericht von vor 3 Stunden und 16 Minuten, um 08:00 UTC
Gültige Prognose vom 22 um 09 UTC bis 23 um 09 UTC
Wind 19 kt aus Nord/Nordost
Sichtweite 10 km oder mehr
Aufgelockert bewölkt in der Höhe von 3500 ft
Wahrscheinlichkeit 30% :
Zeitweise
vom 22 um 09 UTC bis 22 um 11 UTC
Sprühregen

TAF: GCLP 220800Z 2209/2309 02019KT 9999 SCT035 TX20/2214Z TN15/2306Z PROB30 TEMPO 2209/2211 DZ

Wetterbeobachtungen und Prognosen von mehr als 4000 Flughäfen (METAR und TAF Bericht).

Die verfügbaren Stationen werden durch gelbe und rote Markierungen auf der Karte dargestellt.

Führen Sie die Maus auf sie, um den Namen der Station zu sehen.

Darauf klicken, um die Beobachtung von Wetterbeobachtungen und Prognosen zu sehen.

Um die Karte zu ändern : klicken Sie auf den grünen Tasten mit einem schwarzen Kreuz Zum Vergrößern, auf den grünen Button mit einem Gedankenstrich zu verkleinern, oder auf die grünen Pfeile für benachbarte Karten.


METAR-TAF: